createdAt,value
2017-12-30T00:01:36.013Z,35.77
2017-12-30T00:04:01.881Z,35.88
2017-12-30T00:06:27.683Z,35.73
2017-12-30T00:08:53.517Z,35.70
2017-12-30T00:11:19.314Z,35.65
2017-12-30T00:13:45.117Z,35.61
2017-12-30T00:16:10.917Z,35.73
2017-12-30T00:18:37.594Z,35.67
2017-12-30T00:21:03.433Z,35.78
2017-12-30T00:23:29.277Z,35.54
2017-12-30T00:25:55.083Z,35.58
2017-12-30T00:28:20.886Z,35.90
2017-12-30T00:30:46.685Z,35.79
2017-12-30T00:33:12.489Z,35.61
2017-12-30T00:35:38.289Z,35.48
2017-12-30T00:38:04.137Z,35.56
2017-12-30T00:40:29.985Z,35.63
2017-12-30T00:42:55.793Z,35.90
2017-12-30T00:45:21.601Z,35.77
2017-12-30T00:47:47.397Z,35.34
2017-12-30T00:50:13.246Z,35.61
2017-12-30T00:52:39.086Z,35.46
2017-12-30T00:55:04.885Z,35.68
2017-12-30T00:57:30.681Z,35.60
2017-12-30T00:59:56.481Z,35.52
2017-12-30T01:02:22.278Z,35.37
2017-12-30T01:04:48.085Z,35.64
2017-12-30T01:07:13.890Z,35.75
2017-12-30T01:09:39.716Z,35.75
2017-12-30T01:12:06.581Z,35.53
2017-12-30T01:14:32.384Z,35.47
2017-12-30T01:16:58.188Z,35.46
2017-12-30T01:19:23.985Z,35.48
2017-12-30T01:21:49.786Z,35.62
2017-12-30T01:24:15.690Z,35.76
2017-12-30T01:26:42.500Z,35.92
2017-12-30T01:29:08.429Z,35.52
2017-12-30T01:31:35.096Z,35.39
2017-12-30T01:34:00.905Z,35.57
2017-12-30T01:36:26.766Z,35.63
2017-12-30T01:38:53.438Z,35.80
2017-12-30T01:41:20.079Z,35.63
2017-12-30T01:43:45.885Z,35.61
2017-12-30T01:46:11.734Z,35.56
2017-12-30T01:48:43.697Z,35.81
2017-12-30T01:51:09.501Z,35.66
2017-12-30T01:53:35.299Z,35.60
2017-12-30T01:56:01.101Z,35.66
2017-12-30T01:58:26.936Z,35.72
2017-12-30T02:00:52.775Z,35.66
2017-12-30T02:03:18.625Z,35.85
2017-12-30T02:05:44.423Z,36.10
2017-12-30T02:08:10.220Z,35.77
2017-12-30T02:10:36.022Z,35.85
2017-12-30T02:13:02.809Z,35.81
2017-12-30T02:15:29.614Z,35.67
2017-12-30T02:17:55.409Z,35.62
2017-12-30T02:20:21.229Z,35.58
2017-12-30T02:22:47.029Z,35.72
2017-12-30T02:25:13.776Z,35.60
2017-12-30T02:27:39.568Z,35.44
2017-12-30T02:30:05.369Z,35.70
2017-12-30T02:32:32.181Z,35.54
2017-12-30T02:34:58.918Z,35.54
2017-12-30T02:37:24.868Z,35.59
2017-12-30T02:39:50.670Z,35.60
2017-12-30T02:42:16.478Z,35.48
2017-12-30T02:44:42.287Z,35.52
2017-12-30T02:47:08.093Z,35.42
2017-12-30T02:49:33.894Z,35.41
2017-12-30T02:52:00.120Z,35.49
2017-12-30T02:54:25.922Z,35.56
2017-12-30T02:56:51.721Z,35.62
2017-12-30T02:59:17.521Z,35.54
2017-12-30T03:01:43.330Z,35.64
2017-12-30T03:04:09.137Z,35.62
2017-12-30T03:06:34.937Z,35.65
2017-12-30T03:09:00.824Z,35.51
2017-12-30T03:11:26.921Z,35.67
2017-12-30T03:13:52.756Z,35.57
2017-12-30T03:16:19.498Z,35.61
2017-12-30T03:18:45.353Z,35.69
2017-12-30T03:21:11.152Z,35.77
2017-12-30T03:23:37.157Z,35.58
2017-12-30T03:26:02.967Z,35.60
2017-12-30T03:28:28.768Z,35.72
2017-12-30T03:30:54.574Z,35.68
2017-12-30T03:33:20.382Z,35.57
2017-12-30T03:35:46.314Z,35.80
2017-12-30T03:38:12.157Z,35.68
2017-12-30T03:40:37.957Z,35.74
2017-12-30T03:43:03.757Z,35.67
2017-12-30T03:45:29.700Z,35.58
2017-12-30T03:47:55.541Z,35.68
2017-12-30T03:50:21.342Z,35.61
2017-12-30T03:52:47.145Z,35.72
2017-12-30T03:55:12.946Z,35.56
2017-12-30T03:57:38.901Z,35.62
2017-12-30T04:00:04.708Z,35.73
2017-12-30T04:02:30.512Z,35.71
2017-12-30T04:04:56.358Z,35.88
2017-12-30T04:07:22.157Z,35.62
2017-12-30T04:09:47.998Z,35.75
2017-12-30T04:12:13.807Z,35.63
2017-12-30T04:14:39.606Z,35.58
2017-12-30T04:17:05.409Z,35.80
2017-12-30T04:19:31.208Z,35.69
2017-12-30T04:21:57.008Z,35.89
2017-12-30T04:24:22.808Z,35.55
2017-12-30T04:26:48.692Z,35.61
2017-12-30T04:29:14.742Z,35.65
2017-12-30T04:31:40.549Z,35.60
2017-12-30T04:34:07.331Z,35.74
2017-12-30T04:36:33.997Z,35.70
2017-12-30T04:38:59.796Z,35.79
2017-12-30T04:41:25.597Z,35.82
2017-12-30T04:43:51.397Z,35.60
2017-12-30T04:46:17.234Z,35.74
2017-12-30T04:48:43.074Z,35.46
2017-12-30T04:51:09.002Z,35.55
2017-12-30T04:53:35.085Z,35.52
2017-12-30T04:56:00.977Z,35.52
2017-12-30T04:58:26.776Z,35.49
2017-12-30T05:00:52.578Z,35.56
2017-12-30T05:03:18.405Z,35.68
2017-12-30T05:05:51.993Z,35.68
2017-12-30T05:08:17.930Z,35.67
2017-12-30T05:10:43.768Z,35.76
2017-12-30T05:13:09.648Z,35.68
2017-12-30T05:15:35.449Z,35.70
2017-12-30T05:18:01.249Z,35.56
2017-12-30T05:20:27.057Z,35.69
2017-12-30T05:22:52.861Z,35.71
2017-12-30T05:25:18.706Z,35.64
2017-12-30T05:27:44.509Z,35.56
2017-12-30T05:30:11.334Z,35.61
2017-12-30T05:32:37.241Z,35.59
2017-12-30T05:35:04.189Z,35.85
2017-12-30T05:37:29.992Z,35.68
2017-12-30T05:39:55.799Z,35.69
2017-12-30T05:42:21.601Z,35.67
2017-12-30T05:44:47.406Z,35.69
2017-12-30T05:47:13.206Z,35.84
2017-12-30T05:49:39.013Z,35.69
2017-12-30T05:52:04.817Z,35.95
2017-12-30T05:54:30.612Z,35.68
2017-12-30T05:56:56.448Z,35.89
2017-12-30T05:59:22.385Z,35.74
2017-12-30T06:01:48.201Z,36.03
2017-12-30T06:04:14.001Z,35.96
2017-12-30T06:06:39.800Z,36.03
2017-12-30T06:09:05.614Z,35.92
2017-12-30T06:11:32.561Z,35.80
2017-12-30T06:13:58.370Z,35.94
2017-12-30T06:16:24.209Z,36.07
2017-12-30T06:18:50.041Z,35.98
2017-12-30T06:21:15.878Z,36.00
2017-12-30T06:23:41.682Z,35.88
2017-12-30T06:26:07.489Z,36.00
2017-12-30T06:28:33.289Z,36.02
2017-12-30T06:30:59.121Z,36.17
2017-12-30T06:33:25.909Z,36.20
2017-12-30T06:35:52.689Z,36.50
2017-12-30T06:38:18.488Z,36.25
2017-12-30T06:40:44.324Z,36.28
2017-12-30T06:43:10.126Z,36.40
2017-12-30T06:45:37.697Z,36.25
2017-12-30T06:50:36.055Z,36.28
2017-12-30T06:53:01.845Z,36.55
2017-12-30T06:55:27.653Z,36.32
2017-12-30T06:57:53.457Z,36.31
2017-12-30T07:00:20.373Z,36.50
2017-12-30T07:02:46.173Z,36.40
2017-12-30T07:05:12.003Z,36.69
2017-12-30T07:07:37.856Z,37.01
2017-12-30T07:10:03.814Z,36.58
2017-12-30T07:12:30.628Z,36.41
2017-12-30T07:14:57.441Z,36.62
2017-12-30T07:17:23.241Z,36.72
2017-12-30T07:19:49.074Z,36.55
2017-12-30T07:22:14.883Z,36.47
2017-12-30T07:24:40.697Z,36.53
2017-12-30T07:27:06.550Z,36.66
2017-12-30T07:29:32.353Z,36.64
2017-12-30T07:31:58.153Z,36.58
2017-12-30T07:34:23.959Z,36.68
2017-12-30T07:36:49.769Z,36.64
2017-12-30T07:39:15.573Z,36.63
2017-12-30T07:41:41.569Z,36.64
2017-12-30T07:44:08.709Z,36.55
2017-12-30T07:46:34.763Z,36.82
2017-12-30T07:49:00.877Z,36.63
2017-12-30T07:51:28.721Z,36.57
2017-12-30T07:53:55.594Z,36.68
2017-12-30T07:56:21.727Z,36.88
2017-12-30T07:58:47.733Z,37.00
2017-12-30T08:01:13.741Z,36.83
2017-12-30T08:03:39.786Z,36.82
2017-12-30T08:06:07.110Z,36.83
2017-12-30T08:08:33.094Z,36.84
2017-12-30T08:10:59.149Z,36.91
2017-12-30T08:13:25.125Z,36.75
2017-12-30T08:15:51.111Z,36.85
2017-12-30T08:18:17.001Z,37.01
2017-12-30T08:20:42.925Z,36.90
2017-12-30T08:23:08.870Z,36.96
2017-12-30T08:25:34.762Z,36.78
2017-12-30T08:28:00.829Z,36.72
2017-12-30T08:30:26.765Z,37.08
2017-12-30T08:32:52.853Z,36.95
2017-12-30T08:35:18.703Z,36.83
2017-12-30T08:37:44.542Z,37.16
2017-12-30T08:40:11.226Z,37.22
2017-12-30T08:42:37.037Z,37.06
2017-12-30T08:45:02.877Z,37.42
2017-12-30T08:47:28.781Z,37.27
2017-12-30T08:49:54.586Z,37.36
2017-12-30T08:52:20.478Z,37.25
2017-12-30T08:54:46.373Z,37.31
2017-12-30T08:57:13.108Z,37.41
2017-12-30T08:59:38.955Z,37.29
2017-12-30T09:02:04.765Z,37.24
2017-12-30T09:04:30.616Z,37.30
2017-12-30T09:06:56.433Z,37.17
2017-12-30T09:09:22.717Z,37.39
2017-12-30T09:11:49.440Z,37.35
2017-12-30T09:14:16.201Z,37.32
2017-12-30T09:16:42.010Z,37.27
2017-12-30T09:19:07.852Z,37.47
2017-12-30T09:21:33.737Z,37.70
2017-12-30T09:23:59.537Z,37.60
2017-12-30T09:26:25.347Z,37.46
2017-12-30T09:28:51.156Z,37.54
2017-12-30T09:31:17.209Z,37.63
2017-12-30T09:33:43.290Z,37.41
2017-12-30T09:36:09.172Z,37.43
2017-12-30T09:38:34.987Z,37.40
2017-12-30T09:41:00.794Z,37.56
2017-12-30T09:43:26.645Z,37.42
2017-12-30T09:45:52.457Z,37.50
2017-12-30T09:48:18.382Z,37.53
2017-12-30T09:50:44.185Z,37.48
2017-12-30T09:53:10.023Z,37.46
2017-12-30T09:55:35.832Z,37.47
2017-12-30T09:58:01.653Z,37.66
2017-12-30T10:00:27.459Z,37.83
2017-12-30T10:02:53.405Z,38.73
2017-12-30T10:05:19.209Z,38.25
2017-12-30T10:07:45.002Z,38.03
2017-12-30T10:10:11.402Z,37.89
2017-12-30T10:12:37.222Z,37.77
2017-12-30T10:15:03.059Z,37.63
2017-12-30T10:17:28.878Z,37.68
2017-12-30T10:19:54.677Z,37.75
2017-12-30T10:22:20.553Z,37.86
2017-12-30T10:24:46.365Z,37.95
2017-12-30T10:27:13.213Z,37.88
2017-12-30T10:29:39.013Z,38.14
2017-12-30T10:32:05.009Z,37.84
2017-12-30T10:34:30.980Z,37.73
2017-12-30T10:36:56.882Z,38.02
2017-12-30T10:39:22.734Z,37.97
2017-12-30T10:41:48.534Z,38.29
2017-12-30T10:44:15.322Z,37.98
2017-12-30T10:46:41.129Z,38.66
2017-12-30T10:49:06.932Z,38.07
2017-12-30T10:51:32.733Z,37.99
2017-12-30T10:53:58.534Z,37.93
2017-12-30T10:56:24.362Z,37.98
2017-12-30T10:58:50.283Z,38.06
2017-12-30T11:01:16.087Z,37.89
2017-12-30T11:03:41.887Z,37.97
2017-12-30T11:06:07.690Z,38.04
2017-12-30T11:08:33.531Z,38.20
2017-12-30T11:10:59.541Z,38.15
2017-12-30T11:13:25.357Z,38.16
2017-12-30T11:15:51.174Z,38.34
2017-12-30T11:18:16.979Z,38.31
2017-12-30T11:20:42.865Z,38.19
2017-12-30T11:23:08.676Z,38.28
2017-12-30T11:25:34.481Z,38.39
2017-12-30T11:28:00.282Z,38.43
2017-12-30T11:30:26.089Z,38.21
2017-12-30T11:32:51.894Z,38.24
2017-12-30T11:35:17.694Z,38.24
2017-12-30T11:37:43.497Z,38.21
2017-12-30T11:40:09.298Z,38.19
2017-12-30T11:42:35.094Z,38.17
2017-12-30T11:45:01.873Z,38.14
2017-12-30T11:47:27.721Z,38.32
2017-12-30T11:49:53.521Z,38.04
2017-12-30T11:52:19.336Z,37.93
2017-12-30T11:54:45.137Z,38.12
2017-12-30T11:57:10.947Z,37.97
2017-12-30T11:59:36.749Z,37.95
2017-12-30T12:02:02.550Z,38.05
2017-12-30T12:04:29.176Z,38.02
2017-12-30T12:06:55.085Z,37.98
2017-12-30T12:09:20.920Z,38.06
2017-12-30T12:11:46.717Z,38.05
2017-12-30T12:14:12.724Z,38.08
2017-12-30T12:16:38.556Z,37.77
2017-12-30T12:19:04.402Z,37.97
2017-12-30T12:21:30.302Z,37.97
2017-12-30T12:23:56.153Z,38.13
2017-12-30T12:26:21.960Z,38.08
2017-12-30T12:28:47.770Z,37.87
2017-12-30T12:31:13.570Z,37.93
2017-12-30T12:33:39.374Z,37.92
2017-12-30T12:36:05.461Z,38.04
2017-12-30T12:38:31.257Z,38.19
2017-12-30T12:40:57.097Z,37.79
2017-12-30T12:43:22.914Z,38.21
2017-12-30T12:45:48.757Z,38.06
2017-12-30T12:48:14.590Z,37.95
2017-12-30T12:50:40.433Z,37.94
2017-12-30T12:53:06.233Z,38.05
2017-12-30T12:55:32.098Z,38.16
2017-12-30T12:57:57.897Z,37.95
2017-12-30T13:00:23.735Z,37.86
2017-12-30T13:02:49.545Z,37.71
2017-12-30T13:05:15.485Z,37.81
2017-12-30T13:07:41.283Z,37.61
2017-12-30T13:10:07.086Z,37.63
2017-12-30T13:12:32.890Z,37.90
2017-12-30T13:14:58.876Z,37.57
2017-12-30T13:17:24.702Z,37.65
2017-12-30T13:19:50.538Z,37.50
2017-12-30T13:22:16.409Z,37.86
2017-12-30T13:24:42.246Z,37.44
2017-12-30T13:27:08.049Z,37.45
2017-12-30T13:29:33.897Z,37.37
2017-12-30T13:31:59.697Z,37.40
2017-12-30T13:34:25.625Z,37.40
2017-12-30T13:36:51.469Z,37.37
2017-12-30T13:39:18.148Z,39.60
2017-12-30T13:41:44.974Z,38.63
2017-12-30T13:44:10.806Z,38.83
2017-12-30T13:46:36.606Z,38.51
2017-12-30T13:49:02.410Z,38.18
2017-12-30T13:51:28.216Z,37.99
2017-12-30T13:53:54.070Z,37.93
2017-12-30T13:56:19.915Z,38.39
2017-12-30T13:58:45.717Z,37.98
2017-12-30T14:01:11.625Z,37.91
2017-12-30T14:03:37.425Z,38.02
2017-12-30T14:06:04.040Z,37.92
2017-12-30T14:08:29.842Z,38.08
2017-12-30T14:10:55.638Z,38.14
2017-12-30T14:13:21.441Z,38.03
2017-12-30T14:15:47.273Z,38.22
2017-12-30T14:18:13.150Z,38.24
2017-12-30T14:20:38.946Z,38.41
2017-12-30T14:23:04.793Z,38.33
2017-12-30T14:25:30.597Z,38.72
2017-12-30T14:27:57.357Z,38.47
2017-12-30T14:30:24.193Z,38.44
2017-12-30T14:32:49.989Z,38.58
2017-12-30T14:35:15.796Z,38.58
2017-12-30T14:37:41.594Z,38.80
2017-12-30T14:40:07.398Z,38.61
2017-12-30T14:42:33.201Z,38.74
2017-12-30T14:44:59.005Z,38.98
2017-12-30T14:47:24.806Z,38.98
2017-12-30T14:49:50.655Z,39.19
2017-12-30T14:52:17.317Z,39.13
2017-12-30T14:54:43.278Z,39.47
2017-12-30T14:57:09.077Z,39.64
2017-12-30T14:59:34.886Z,39.48
2017-12-30T15:02:00.774Z,39.64
2017-12-30T15:04:26.576Z,40.00
2017-12-30T15:06:52.384Z,39.81
2017-12-30T15:09:18.224Z,39.81
2017-12-30T15:11:44.066Z,39.75
2017-12-30T15:14:09.869Z,40.31
2017-12-30T15:16:35.717Z,40.11
2017-12-30T15:19:02.554Z,40.24
2017-12-30T15:21:29.352Z,40.13
2017-12-30T15:23:55.149Z,40.25
2017-12-30T15:26:20.946Z,40.35
2017-12-30T15:28:46.746Z,40.59
2017-12-30T15:31:12.582Z,40.51
2017-12-30T15:33:38.389Z,40.32
2017-12-30T15:36:05.050Z,40.40
2017-12-30T15:38:31.688Z,40.19
2017-12-30T15:40:57.489Z,40.53
2017-12-30T15:43:23.346Z,40.24
2017-12-30T15:45:49.159Z,40.26
2017-12-30T15:48:14.957Z,40.38
2017-12-30T15:50:40.855Z,40.12
2017-12-30T15:53:06.665Z,40.35
2017-12-30T15:55:32.646Z,40.53
2017-12-30T15:57:58.453Z,40.54
2017-12-30T16:00:24.248Z,40.55
2017-12-30T16:02:51.001Z,40.53
2017-12-30T16:05:16.814Z,40.80
2017-12-30T16:07:42.645Z,40.56
2017-12-30T16:10:08.525Z,40.67
2017-12-30T16:12:34.326Z,40.67
2017-12-30T16:15:00.166Z,40.76
2017-12-30T16:17:26.195Z,40.75
2017-12-30T16:19:52.982Z,40.59
2017-12-30T16:22:18.781Z,40.72
2017-12-30T16:24:45.537Z,40.93
2017-12-30T16:27:11.374Z,40.79
2017-12-30T16:29:38.129Z,40.89
2017-12-30T16:32:03.933Z,40.94
2017-12-30T16:34:29.773Z,40.89
2017-12-30T16:36:56.752Z,40.83
2017-12-30T16:39:22.770Z,41.02
2017-12-30T16:41:48.581Z,41.05
2017-12-30T16:44:14.396Z,41.20
2017-12-30T16:46:40.206Z,41.24
2017-12-30T16:49:06.174Z,41.06
2017-12-30T16:51:32.028Z,41.22
2017-12-30T16:53:58.727Z,41.59
2017-12-30T16:56:24.700Z,41.53
2017-12-30T16:58:51.570Z,42.01
2017-12-30T17:01:18.261Z,41.59
2017-12-30T17:03:44.069Z,41.50
2017-12-30T17:06:09.878Z,41.41
2017-12-30T17:08:35.686Z,41.68
2017-12-30T17:11:01.506Z,41.62
2017-12-30T17:13:27.306Z,41.66
2017-12-30T17:15:53.165Z,41.55
2017-12-30T17:18:18.969Z,41.74
2017-12-30T17:20:44.776Z,41.78
2017-12-30T17:23:10.628Z,41.74
2017-12-30T17:25:36.442Z,41.61
2017-12-30T17:28:02.296Z,41.81
2017-12-30T17:30:28.106Z,41.78
2017-12-30T17:33:00.949Z,41.77
2017-12-30T17:35:26.781Z,42.39
2017-12-30T17:37:52.591Z,42.34
2017-12-30T17:40:18.554Z,42.44
2017-12-30T17:42:44.373Z,43.02
2017-12-30T17:45:11.109Z,44.15
2017-12-30T17:47:36.919Z,42.31
2017-12-30T17:50:02.757Z,42.40
2017-12-30T17:52:28.565Z,42.88
2017-12-30T17:54:54.368Z,43.49
2017-12-30T17:57:20.369Z,43.41
2017-12-30T17:59:46.418Z,42.74
2017-12-30T18:02:12.342Z,43.18
2017-12-30T18:04:38.149Z,42.48
2017-12-30T18:07:03.954Z,42.40
2017-12-30T18:09:29.797Z,43.15
2017-12-30T18:11:56.600Z,43.04
2017-12-30T18:14:22.985Z,42.89
2017-12-30T18:16:48.798Z,43.21
2017-12-30T18:19:14.726Z,42.95
2017-12-30T18:21:40.529Z,43.19
2017-12-30T18:24:06.329Z,42.96
2017-12-30T18:26:32.133Z,44.38
2017-12-30T18:28:58.889Z,43.17
2017-12-30T18:31:24.702Z,43.06
2017-12-30T18:33:50.514Z,42.92
2017-12-30T18:36:16.325Z,43.60
2017-12-30T18:38:42.599Z,43.24
2017-12-30T18:41:08.461Z,43.43
2017-12-30T18:43:34.266Z,43.40
2017-12-30T18:46:00.073Z,42.88
2017-12-30T18:48:26.206Z,43.28
2017-12-30T18:50:52.149Z,43.21
2017-12-30T18:53:18.070Z,43.51
2017-12-30T18:55:43.878Z,43.30
2017-12-30T18:58:09.837Z,43.02
2017-12-30T19:00:35.650Z,43.19
2017-12-30T19:03:01.727Z,43.40
2017-12-30T19:05:27.530Z,43.54
2017-12-30T19:07:53.342Z,43.52
2017-12-30T19:10:19.177Z,43.54
2017-12-30T19:12:45.122Z,43.51
2017-12-30T19:15:10.930Z,43.37
2017-12-30T19:17:36.736Z,43.89
2017-12-30T19:20:02.543Z,43.52
2017-12-30T19:22:28.526Z,43.50
2017-12-30T19:24:54.336Z,43.99
2017-12-30T19:27:20.202Z,43.96
2017-12-30T19:29:46.005Z,43.76
2017-12-30T19:32:11.820Z,43.79
2017-12-30T19:34:37.621Z,44.11
2017-12-30T19:37:03.443Z,44.26
2017-12-30T19:39:29.265Z,44.14
2017-12-30T19:41:55.961Z,44.45
2017-12-30T19:44:21.772Z,44.71
2017-12-30T19:46:47.571Z,45.01
2017-12-30T19:49:13.381Z,44.58
2017-12-30T19:51:39.194Z,44.37
2017-12-30T19:54:04.994Z,44.11
2017-12-30T19:56:30.802Z,44.27
2017-12-30T19:58:56.811Z,44.40
2017-12-30T20:01:22.614Z,44.52
2017-12-30T20:03:48.428Z,44.74
2017-12-30T20:06:15.105Z,44.83
2017-12-30T20:08:41.006Z,44.49
2017-12-30T20:11:08.732Z,44.32
2017-12-30T20:13:35.691Z,44.42
2017-12-30T20:16:01.496Z,44.47
2017-12-30T20:18:27.681Z,44.64
2017-12-30T20:20:53.893Z,44.71
2017-12-30T20:23:19.698Z,44.82
2017-12-30T20:25:45.645Z,45.13
2017-12-30T20:28:11.469Z,44.71
2017-12-30T20:30:37.321Z,44.78
2017-12-30T20:33:05.680Z,44.69
2017-12-30T20:35:31.622Z,45.65
2017-12-30T20:37:57.418Z,45.36
2017-12-30T20:40:23.466Z,45.12
2017-12-30T20:42:49.574Z,45.15
2017-12-30T20:45:15.386Z,45.29
2017-12-30T20:47:41.303Z,44.89
2017-12-30T20:50:07.178Z,45.01
2017-12-30T20:52:32.989Z,45.17
2017-12-30T20:54:58.863Z,45.42
2017-12-30T20:57:24.671Z,45.99
2017-12-30T20:59:50.495Z,45.45
2017-12-30T21:02:16.309Z,45.82
2017-12-30T21:04:42.113Z,45.53
2017-12-30T21:07:07.918Z,45.87
2017-12-30T21:09:33.726Z,46.10
2017-12-30T21:11:59.580Z,45.55
2017-12-30T21:14:25.387Z,45.95
2017-12-30T21:16:51.186Z,45.90
2017-12-30T21:19:17.182Z,46.02
2017-12-30T21:21:43.167Z,45.70
2017-12-30T21:24:09.021Z,45.90
2017-12-30T21:26:34.826Z,45.97
2017-12-30T21:29:00.636Z,45.68
2017-12-30T21:31:26.470Z,45.94
2017-12-30T21:33:52.314Z,45.82
2017-12-30T21:36:18.117Z,45.62
2017-12-30T21:38:43.970Z,46.08
2017-12-30T21:41:10.014Z,45.60
2017-12-30T21:43:36.142Z,45.59
2017-12-30T21:46:02.146Z,46.18
2017-12-30T21:48:27.954Z,46.03
2017-12-30T21:50:53.761Z,46.03
2017-12-30T21:53:19.570Z,45.95
2017-12-30T21:55:45.493Z,45.76
2017-12-30T21:58:11.337Z,46.03
2017-12-30T22:00:37.141Z,46.18
2017-12-30T22:03:06.517Z,46.12
2017-12-30T22:05:32.446Z,46.25
2017-12-30T22:07:58.265Z,46.64
2017-12-30T22:10:24.077Z,46.56
2017-12-30T22:12:49.878Z,46.17
2017-12-30T22:15:15.870Z,46.56
2017-12-30T22:17:41.687Z,46.33
2017-12-30T22:20:08.427Z,46.35
2017-12-30T22:22:34.247Z,46.51
2017-12-30T22:25:00.124Z,46.50
2017-12-30T22:27:26.797Z,46.04
2017-12-30T22:29:53.669Z,46.17
2017-12-30T22:32:19.482Z,45.93
2017-12-30T22:34:45.289Z,46.76
2017-12-30T22:37:11.107Z,46.20
2017-12-30T22:39:37.083Z,46.26
2017-12-30T22:42:02.890Z,46.53
2017-12-30T22:44:28.703Z,46.39
2017-12-30T22:46:55.423Z,46.48
2017-12-30T22:49:21.229Z,46.24
2017-12-30T22:51:47.275Z,46.64
2017-12-30T22:54:13.089Z,46.43
2017-12-30T22:56:38.909Z,46.60
2017-12-30T22:59:04.723Z,46.66
2017-12-30T23:01:30.605Z,46.76
2017-12-30T23:03:56.413Z,46.19
2017-12-30T23:06:22.213Z,46.77
2017-12-30T23:08:49.017Z,46.73
2017-12-30T23:11:14.824Z,46.39
2017-12-30T23:13:40.890Z,46.59
2017-12-30T23:16:06.766Z,47.20
2017-12-30T23:18:32.574Z,46.54
2017-12-30T23:20:58.373Z,47.00
2017-12-30T23:23:25.761Z,47.00
2017-12-30T23:25:51.562Z,46.68
2017-12-30T23:28:17.362Z,46.86
2017-12-30T23:30:43.165Z,46.78
2017-12-30T23:33:08.970Z,46.94
2017-12-30T23:35:34.816Z,46.68
2017-12-30T23:38:00.610Z,46.78
2017-12-30T23:40:26.621Z,46.61
2017-12-30T23:42:53.249Z,46.63
2017-12-30T23:45:20.057Z,46.76
2017-12-30T23:47:45.854Z,47.02
2017-12-30T23:50:11.670Z,46.79
2017-12-30T23:52:37.506Z,46.75
2017-12-30T23:55:03.357Z,46.30
2017-12-30T23:57:29.297Z,46.39
2017-12-30T23:59:55.101Z,46.63
